Time;durP1;ratioP1;P1;durP2;ratioP2;P2;SDS_P1;SDS_P2;PMS_P1;PMS_P2;Temp;Humidity;BMP_temperature;BMP_pressure;BME280_temperature;BME280_humidity;BME280_pressure;Samples;Min_cycle;Max_cycle;Signal;HPM_P1;HPM_P2
2022/10/31 00:02:14;;;;;;;11.50;2.30;;;;;;;-145.69;100.00;52317.66;5138936;27;20642;-84
2022/10/31 00:04:40;;;;;;;7.07;2.43;;;;;;;-145.69;100.00;52321.59;5137233;27;20639;-84
2022/10/31 00:07:08;;;;;;;10.17;2.20;;;;;;;-145.69;100.00;52297.84;5137173;27;20562;-84
2022/10/31 00:09:34;;;;;;;18.87;2.43;;;;;;;-145.69;100.00;52291.91;5137169;27;20203;-84
2022/10/31 00:12:01;;;;;;;10.73;2.47;;;;;;;-145.69;100.00;52293.88;5137321;27;20196;-84
2022/10/31 00:14:27;;;;;;;8.03;2.40;;;;;;;-145.69;100.00;52327.53;5136847;27;20228;-85
2022/10/31 00:16:54;;;;;;;10.32;2.28;;;;;;;-145.69;100.00;52317.66;5136280;27;20792;-87
2022/10/31 00:19:20;;;;;;;6.83;2.23;;;;;;;-145.69;100.00;52278.03;5137020;27;20224;-85
2022/10/31 00:21:47;;;;;;;17.30;2.63;;;;;;;-145.69;100.00;52333.47;5135702;27;20192;-84
2022/10/31 00:24:15;;;;;;;7.93;2.83;;;;;;;-145.69;100.00;52323.59;5137014;27;20540;-84
2022/10/31 00:26:41;;;;;;;10.93;2.47;;;;;;;-145.69;100.00;52321.59;5137116;27;20200;-85
2022/10/31 00:29:08;;;;;;;11.40;2.87;;;;;;;-145.69;100.00;52313.69;5136795;27;20219;-83
2022/10/31 00:31:35;;;;;;;9.90;2.40;;;;;;;-145.69;100.00;52301.81;5144444;27;20192;-85
2022/10/31 00:34:02;;;;;;;14.17;2.23;;;;;;;-145.69;100.00;52357.25;5157362;27;20228;-84
2022/10/31 00:36:29;;;;;;;12.63;2.37;;;;;;;-145.69;100.00;52317.66;5157253;27;20291;-84
2022/10/31 00:38:56;;;;;;;12.77;2.87;;;;;;;-145.69;100.00;52305.75;5157338;27;20192;-84
2022/10/31 00:41:24;;;;;;;8.73;2.87;;;;;;;-145.69;100.00;52307.75;5157360;27;20195;-84
2022/10/31 00:43:50;;;;;;;9.17;2.33;;;;;;;-145.69;100.00;52311.69;5157439;27;20283;-84
2022/10/31 00:46:17;;;;;;;12.53;2.63;;;;;;;-145.69;100.00;52341.41;5156724;27;20196;-85
2022/10/31 00:48:43;;;;;;;9.20;2.17;;;;;;;-145.69;100.00;52305.75;5156265;27;20200;-85
2022/10/31 00:51:11;;;;;;;4.57;2.03;;;;;;;-145.69;100.00;52305.75;5156902;27;20196;-84
2022/10/31 00:53:37;;;;;;;9.70;2.07;;;;;;;-145.69;100.00;52337.44;5156690;27;20212;-85
2022/10/31 00:56:04;;;;;;;10.60;2.20;;;;;;;-145.69;100.00;52305.75;5137995;27;20205;-85
2022/10/31 00:58:32;;;;;;;14.57;2.33;;;;;;;-145.69;100.00;52301.81;5136220;27;20227;-85
2022/10/31 01:00:59;;;;;;;8.87;2.57;;;;;;;-145.69;100.00;52333.47;5136576;27;20189;-85
2022/10/31 01:03:27;;;;;;;5.57;1.93;;;;;;;-145.69;100.00;52311.69;5144998;27;20188;-85
2022/10/31 01:06:01;;;;;;;7.37;2.13;;;;;;;-145.69;100.00;52325.56;5156954;27;20214;-85
2022/10/31 01:08:29;;;;;;;7.63;2.30;;;;;;;-145.69;100.00;52311.69;5156525;27;20197;-85
2022/10/31 01:11:00;;;;;;;11.97;2.83;;;;;;;-145.69;100.00;52313.69;5156837;27;20581;-85
2022/10/31 01:13:27;;;;;;;11.30;2.47;;;;;;;-145.69;100.00;52337.44;5156531;27;20677;-85
2022/10/31 01:15:56;;;;;;;11.27;2.00;;;;;;;-145.69;100.00;52331.50;5156311;27;20233;-85
2022/10/31 01:18:23;;;;;;;6.13;2.43;;;;;;;-145.69;100.00;52325.56;5156282;27;20212;-84
2022/10/31 01:20:58;;;;;;;8.10;1.97;;;;;;;-145.69;100.00;52301.81;5154899;27;20198;-85
2022/10/31 01:23:25;;;;;;;8.90;2.00;;;;;;;-145.69;100.00;52309.72;5136043;27;20269;-85
2022/10/31 01:26:00;;;;;;;11.70;2.58;;;;;;;-145.69;100.00;52337.44;5134442;27;20429;-85
2022/10/31 01:28:26;;;;;;;8.53;2.40;;;;;;;-145.69;100.00;52309.72;5135615;27;20196;-83
2022/10/31 01:30:53;;;;;;;8.80;1.93;;;;;;;-145.69;100.00;52301.81;5135357;27;20203;-86
2022/10/31 01:33:21;;;;;;;6.77;2.63;;;;;;;-145.69;100.00;52289.91;5135448;27;20722;-85
2022/10/31 01:35:47;;;;;;;10.43;2.78;;;;;;;-145.69;100.00;52353.28;5135096;27;20551;-85
2022/10/31 01:38:13;;;;;;;18.43;2.73;;;;;;;-145.69;100.00;52331.50;5135483;27;20193;-85
2022/10/31 01:40:40;;;;;;;5.63;1.90;;;;;;;-145.69;100.00;52305.75;5135285;27;20559;-85
2022/10/31 01:43:12;;;;;;;4.70;2.10;;;;;;;-145.69;100.00;52341.41;5135806;27;20204;-84
2022/10/31 01:45:38;;;;;;;11.27;3.00;;;;;;;-145.69;100.00;52327.53;5115091;28;20197;-85
2022/10/31 01:48:05;;;;;;;7.97;2.20;;;;;;;-145.69;100.00;52317.66;5117629;27;20200;-84
2022/10/31 01:50:38;;;;;;;6.83;2.07;;;;;;;-145.69;100.00;52293.88;5135179;27;20201;-85
2022/10/31 01:53:09;;;;;;;8.93;2.10;;;;;;;-145.69;100.00;52297.84;5135145;27;20651;-86
2022/10/31 01:55:39;;;;;;;9.60;2.10;;;;;;;-145.69;100.00;52311.69;5134999;27;20228;-85
2022/10/31 01:58:10;;;;;;;9.23;2.10;;;;;;;-145.69;100.00;52297.84;5134912;27;20223;-85
2022/10/31 02:00:37;;;;;;;9.47;2.47;;;;;;;-145.69;100.00;52353.28;5135156;27;20204;-85
2022/10/31 02:03:04;;;;;;;8.50;2.23;;;;;;;-145.69;100.00;52325.56;5134862;27;20196;-85
2022/10/31 02:05:31;;;;;;;8.23;1.93;;;;;;;-145.69;100.00;52329.53;5134976;27;20193;-84
2022/10/31 02:08:04;;;;;;;3.37;2.10;;;;;;;-145.69;100.00;52345.38;5134653;27;20203;-84
2022/10/31 02:10:33;;;;;;;11.40;2.63;;;;;;;-145.69;100.00;52309.72;5134848;27;20204;-85
2022/10/31 02:13:03;;;;;;;5.27;1.83;;;;;;;-145.69;100.00;52323.59;5135032;27;20196;-85
2022/10/31 02:15:31;;;;;;;11.43;2.17;;;;;;;-145.69;100.00;52335.47;5154469;27;20842;-84
2022/10/31 02:17:58;;;;;;;10.70;2.47;;;;;;;-145.69;100.00;52309.72;5155722;27;20681;-85
2022/10/31 02:20:28;;;;;;;13.80;2.20;;;;;;;-145.69;100.00;52333.47;5155225;27;20589;-83
2022/10/31 02:23:21;;;;;;;10.77;1.90;;;;;;;-145.69;100.00;52351.31;5154423;27;20196;-85
2022/10/31 02:26:08;;;;;;;8.67;2.40;;;;;;;-145.69;100.00;52325.56;5155563;27;20207;-85
2022/10/31 02:28:55;;;;;;;9.53;2.40;;;;;;;-145.69;100.00;52335.47;5155434;27;20207;-85
2022/10/31 02:31:34;;;;;;;12.87;2.47;;;;;;;-145.69;100.00;52337.44;5155960;27;20614;-84
2022/10/31 02:34:08;;;;;;;12.60;2.87;;;;;;;-145.69;100.00;52333.47;5155269;27;20252;-84
2022/10/31 02:36:43;;;;;;;7.67;2.37;;;;;;;-145.69;100.00;52309.72;5155358;27;20203;-84
2022/10/31 02:39:17;;;;;;;11.97;2.40;;;;;;;-145.69;100.00;52353.28;5155140;27;20200;-83
2022/10/31 02:41:50;;;;;;;16.50;3.00;;;;;;;-145.69;100.00;52347.34;5154856;27;20199;-85
2022/10/31 02:44:23;;;;;;;10.57;2.40;;;;;;;-145.69;100.00;52317.66;5155338;27;20227;-84
2022/10/31 02:46:56;;;;;;;6.23;1.80;;;;;;;-145.69;100.00;52321.59;5154945;27;20672;-85
2022/10/31 02:49:28;;;;;;;11.17;2.60;;;;;;;-145.69;100.00;52347.34;5155211;27;20200;-85
2022/10/31 02:51:55;;;;;;;10.90;2.43;;;;;;;-145.69;100.00;52349.31;5154979;27;20206;-83
2022/10/31 02:54:24;;;;;;;12.83;2.63;;;;;;;-145.69;100.00;52357.25;5155246;27;20191;-85
2022/10/31 02:56:55;;;;;;;9.87;2.27;;;;;;;-145.69;100.00;52325.56;5155339;27;20192;-84
2022/10/31 02:59:23;;;;;;;13.67;2.70;;;;;;;-145.69;100.00;52357.25;5155340;27;20279;-85
2022/10/31 03:02:09;;;;;;;10.97;2.70;;;;;;;-145.69;100.00;52285.97;5154568;27;20826;-84
2022/10/31 03:04:54;;;;;;;6.57;2.43;;;;;;;-145.69;100.00;52345.38;5154875;27;20543;-84
2022/10/31 03:07:31;;;;;;;9.03;2.67;;;;;;;-145.69;100.00;52343.38;5155114;27;20196;-84
2022/10/31 03:10:06;;;;;;;7.77;2.50;;;;;;;-145.69;100.00;52309.72;5153047;27;20210;-84
2022/10/31 03:12:39;;;;;;;13.77;2.30;;;;;;;-145.69;100.00;52321.59;5138232;27;20200;-85
2022/10/31 03:15:13;;;;;;;7.00;2.00;;;;;;;-145.69;100.00;52329.53;5137974;27;20694;-85
2022/10/31 03:17:51;;;;;;;13.43;2.57;;;;;;;-145.69;100.00;52355.28;5138309;27;20226;-84
2022/10/31 03:20:22;;;;;;;7.33;2.57;;;;;;;-145.69;100.00;52349.31;5138269;27;20208;-85
2022/10/31 03:22:48;;;;;;;9.67;2.43;;;;;;;-145.69;100.00;52345.38;5138064;27;20201;-85
2022/10/31 03:25:16;;;;;;;11.17;2.87;;;;;;;-145.69;100.00;52321.59;5138057;27;20659;-85
2022/10/31 03:27:44;;;;;;;12.77;2.33;;;;;;;-145.69;100.00;52335.47;5138313;27;20222;-84
2022/10/31 03:30:11;;;;;;;7.40;2.87;;;;;;;-145.69;100.00;52361.22;5138292;27;20204;-83
2022/10/31 03:32:44;;;;;;;12.20;2.97;;;;;;;-145.69;100.00;52341.41;5137483;27;20667;-83
2022/10/31 03:35:14;;;;;;;9.13;3.00;;;;;;;-145.69;100.00;52325.56;5137658;27;20236;-84
2022/10/31 03:37:42;;;;;;;10.77;2.50;;;;;;;-145.69;100.00;52323.59;5137956;27;20567;-86
2022/10/31 03:40:12;;;;;;;6.10;2.30;;;;;;;-145.69;100.00;52337.44;5143788;27;20542;-85
2022/10/31 03:42:41;;;;;;;9.80;2.70;;;;;;;-145.69;100.00;52357.25;5150240;27;20550;-86
2022/10/31 03:45:13;;;;;;;4.60;2.20;;;;;;;-145.69;100.00;52303.78;5133726;27;20193;-84
2022/10/31 03:47:43;;;;;;;13.63;2.40;;;;;;;-145.69;100.00;52325.56;5137768;27;20197;-85
2022/10/31 03:50:12;;;;;;;11.25;2.60;;;;;;;-145.69;100.00;52301.81;5137053;27;20444;-85
2022/10/31 03:52:46;;;;;;;9.30;2.63;;;;;;;-145.69;100.00;52345.38;5137782;27;20204;-85
2022/10/31 03:55:19;;;;;;;8.87;2.57;;;;;;;-145.69;100.00;52325.56;5137386;27;20231;-85
2022/10/31 03:57:52;;;;;;;11.93;2.33;;;;;;;-145.69;100.00;52351.31;5137752;27;20200;-85
2022/10/31 04:00:20;;;;;;;7.97;2.60;;;;;;;-145.69;100.00;52299.81;5137395;27;20197;-85
2022/10/31 04:02:54;;;;;;;9.83;2.23;;;;;;;-145.69;100.00;52329.53;5137238;27;20216;-85
2022/10/31 04:05:21;;;;;;;7.80;2.37;;;;;;;-145.69;100.00;52371.13;5137506;27;20197;-84
2022/10/31 04:07:53;;;;;;;9.57;2.20;;;;;;;-145.69;100.00;52337.44;5137323;27;20203;-84
2022/10/31 04:10:20;;;;;;;6.67;2.70;;;;;;;-145.69;100.00;52367.16;5137049;27;20201;-84
2022/10/31 04:12:53;;;;;;;10.27;2.20;;;;;;;-145.69;100.00;52369.13;5145600;27;20203;-84
2022/10/31 04:15:20;;;;;;;10.90;2.37;;;;;;;-145.69;100.00;52341.41;5148066;27;20216;-83
2022/10/31 04:17:51;;;;;;;10.83;3.20;;;;;;;-145.69;100.00;52365.16;5156591;27;20199;-85
2022/10/31 04:20:18;;;;;;;16.93;3.03;;;;;;;-145.69;100.00;52305.75;5157719;27;20196;-85
2022/10/31 04:22:45;;;;;;;11.73;2.87;;;;;;;-145.69;100.00;52351.31;5157391;27;20192;-85
2022/10/31 04:25:11;;;;;;;7.63;2.53;;;;;;;-145.69;100.00;52341.41;5157637;27;20661;-85
2022/10/31 04:27:38;;;;;;;6.47;2.50;;;;;;;-145.69;100.00;52361.22;5157159;27;20202;-85
2022/10/31 04:30:05;;;;;;;7.33;2.30;;;;;;;-145.69;100.00;52345.38;5157433;27;20206;-86
2022/10/31 04:32:32;;;;;;;11.00;2.87;;;;;;;-145.69;100.00;52337.44;5157608;27;20200;-85
2022/10/31 04:35:00;;;;;;;10.85;2.88;;;;;;;-145.69;100.00;52357.25;5114669;28;20439;-85
2022/10/31 04:37:26;;;;;;;7.63;2.73;;;;;;;-145.69;100.00;52341.41;5115986;28;20201;-85
2022/10/31 04:39:53;;;;;;;10.60;2.47;;;;;;;-145.69;100.00;52349.31;5110072;28;20548;-85
2022/10/31 04:42:19;;;;;;;13.80;2.50;;;;;;;-145.69;100.00;52317.66;5095583;28;20205;-86
2022/10/31 04:44:45;;;;;;;8.33;2.27;;;;;;;-145.69;100.00;52315.66;5095901;28;20567;-85
2022/10/31 04:47:12;;;;;;;10.60;2.50;;;;;;;-145.69;100.00;52357.25;5095802;28;20194;-85
2022/10/31 04:49:38;;;;;;;8.37;2.30;;;;;;;-145.69;100.00;52325.56;5095616;28;20209;-85
2022/10/31 04:52:07;;;;;;;9.50;2.20;;;;;;;-145.69;100.00;52321.59;5095125;28;20202;-85
2022/10/31 04:54:34;;;;;;;10.13;2.30;;;;;;;-145.69;100.00;52341.41;5095524;28;20284;-84
2022/10/31 04:57:01;;;;;;;12.23;3.37;;;;;;;-145.69;100.00;52349.31;5094971;28;20229;-85
2022/10/31 04:59:27;;;;;;;7.13;2.90;;;;;;;-145.69;100.00;52353.28;5095454;28;20220;-84
2022/10/31 05:01:54;;;;;;;6.10;2.60;;;;;;;-145.69;100.00;52349.31;5095449;28;20225;-85
2022/10/31 05:04:20;;;;;;;11.53;3.37;;;;;;;-145.69;100.00;52345.38;5095371;28;20202;-85
2022/10/31 05:06:47;;;;;;;9.77;2.50;;;;;;;-145.69;100.00;52345.38;5095113;28;20216;-85
2022/10/31 05:09:14;;;;;;;9.07;2.90;;;;;;;-145.69;100.00;52355.28;5095494;28;20198;-84
2022/10/31 05:11:41;;;;;;;8.17;2.60;;;;;;;-145.69;100.00;52365.16;5095025;28;20202;-85
2022/10/31 05:14:07;;;;;;;12.43;2.37;;;;;;;-145.69;100.00;52349.31;5097284;28;20202;-85
2022/10/31 05:16:34;;;;;;;10.20;2.60;;;;;;;-145.69;100.00;52353.28;5115490;28;20225;-85
2022/10/31 05:19:00;;;;;;;10.43;2.30;;;;;;;-145.69;100.00;52333.47;5115621;28;20212;-84
2022/10/31 05:21:27;;;;;;;5.77;2.03;;;;;;;-145.69;100.00;52333.47;5115432;28;20197;-84
2022/10/31 05:23:53;;;;;;;11.33;2.43;;;;;;;-145.69;100.00;52347.34;5115093;28;20204;-84
2022/10/31 05:26:21;;;;;;;10.80;2.37;;;;;;;-145.69;100.00;52337.44;5114911;28;20200;-84
2022/10/31 05:28:48;;;;;;;9.00;2.27;;;;;;;-145.69;100.00;52331.50;5115264;28;20197;-84
2022/10/31 05:31:14;;;;;;;10.17;2.63;;;;;;;-145.69;100.00;52329.53;5114761;28;20201;-84
2022/10/31 05:33:41;;;;;;;8.83;2.30;;;;;;;-145.69;100.00;52339.44;5133081;27;20226;-84
2022/10/31 05:36:08;;;;;;;9.13;2.50;;;;;;;-145.69;100.00;52353.28;5155999;27;20224;-85
2022/10/31 05:38:34;;;;;;;7.77;2.50;;;;;;;-145.69;100.00;52343.38;5156120;27;20200;-85
2022/10/31 05:41:01;;;;;;;13.47;3.13;;;;;;;-145.69;100.00;52335.47;5147520;27;20202;-85
2022/10/31 05:43:29;;;;;;;17.00;3.13;;;;;;;-145.69;100.00;52319.63;5115081;27;20201;-85
2022/10/31 05:45:57;;;;;;;11.30;2.73;;;;;;;-145.69;100.00;52333.47;5114782;28;20208;-84
2022/10/31 05:48:23;;;;;;;8.50;2.83;;;;;;;-145.69;100.00;52341.41;5114426;27;20205;-84
2022/10/31 05:50:50;;;;;;;7.57;2.40;;;;;;;-145.69;100.00;52351.31;5114564;28;20236;-84
2022/10/31 05:53:17;;;;;;;13.53;2.43;;;;;;;-145.69;100.00;52345.38;5114549;28;20204;-83
2022/10/31 05:55:44;;;;;;;9.33;2.70;;;;;;;-145.69;100.00;52384.97;5114184;28;20710;-84
2022/10/31 05:58:11;;;;;;;11.23;2.40;;;;;;;-145.69;100.00;52341.41;5114421;28;20204;-84
2022/10/31 06:00:39;;;;;;;11.03;2.57;;;;;;;-145.69;100.00;52337.44;5114991;28;20202;-84
2022/10/31 06:03:08;;;;;;;8.00;2.73;;;;;;;-145.69;100.00;52353.28;5127247;27;20189;-84
2022/10/31 06:05:34;;;;;;;5.90;2.50;;;;;;;-145.69;100.00;52303.78;5135144;27;20221;-85
2022/10/31 06:08:01;;;;;;;6.47;2.13;;;;;;;-145.69;100.00;52369.13;5135101;27;20201;-83
2022/10/31 06:10:28;;;;;;;9.27;2.90;;;;;;;-145.69;100.00;52297.84;5135166;27;20204;-85
2022/10/31 06:12:54;;;;;;;9.00;2.40;;;;;;;-145.69;100.00;52333.47;5135123;27;20197;-84
2022/10/31 06:15:21;;;;;;;10.97;2.80;;;;;;;-145.69;100.00;52357.25;5134803;27;20279;-84
2022/10/31 06:17:58;;;;;;;7.23;2.50;;;;;;;-145.69;100.00;52361.22;5134621;27;20200;-84
2022/10/31 06:20:25;;;;;;;7.37;2.80;;;;;;;-145.69;100.00;52347.34;5134802;27;20196;-84
2022/10/31 06:22:51;;;;;;;9.80;2.83;;;;;;;-145.69;100.00;52335.47;5135022;27;20196;-84
2022/10/31 06:25:18;;;;;;;8.73;2.23;;;;;;;-145.69;100.00;52333.47;5133494;27;20193;-84
2022/10/31 06:27:44;;;;;;;7.33;2.27;;;;;;;-145.69;100.00;52335.47;5134852;27;20197;-84
2022/10/31 06:30:11;;;;;;;12.10;2.93;;;;;;;-145.69;100.00;52365.16;5134842;27;20219;-84
2022/10/31 06:32:38;;;;;;;8.10;2.13;;;;;;;-145.69;100.00;52337.44;5142447;27;20642;-82
2022/10/31 06:35:07;;;;;;;7.47;2.87;;;;;;;-145.69;100.00;52341.41;5137200;27;20200;-84
2022/10/31 06:37:33;;;;;;;7.60;2.70;;;;;;;-145.69;100.00;52319.63;5134583;28;20698;-83
2022/10/31 06:40:00;;;;;;;6.30;2.47;;;;;;;-145.69;100.00;52345.38;5134623;27;20220;-84
2022/10/31 06:42:26;;;;;;;7.83;2.50;;;;;;;-145.69;100.00;52349.31;5135548;28;20208;-84
2022/10/31 06:44:53;;;;;;;6.17;2.43;;;;;;;-145.69;100.00;52327.53;5135394;27;20224;-84
2022/10/31 06:47:21;;;;;;;11.02;2.67;;;;;;;-145.69;100.00;52353.28;5139072;27;20437;-84
2022/10/31 06:49:47;;;;;;;12.93;2.70;;;;;;;-145.69;100.00;52347.34;5140607;27;20197;-84
2022/10/31 06:52:15;;;;;;;11.80;2.60;;;;;;;-145.69;100.00;52345.38;5139256;27;20207;-85
2022/10/31 06:54:42;;;;;;;8.33;2.23;;;;;;;-145.69;100.00;52355.28;5139076;27;20283;-86
2022/10/31 06:57:09;;;;;;;11.57;2.67;;;;;;;-145.69;100.00;52325.56;5138662;27;20231;-85
2022/10/31 06:59:35;;;;;;;12.47;2.87;;;;;;;-145.69;100.00;52309.72;5138372;27;20197;-84
2022/10/31 07:02:02;;;;;;;14.07;3.63;;;;;;;-145.69;100.00;52349.31;5138653;27;20215;-85
2022/10/31 07:04:28;;;;;;;11.10;2.77;;;;;;;-145.69;100.00;52341.41;5138612;27;20288;-85
2022/10/31 07:06:55;;;;;;;10.10;3.03;;;;;;;-145.69;100.00;52317.66;5140035;27;20558;-85
2022/10/31 07:09:22;;;;;;;9.97;2.60;;;;;;;-145.69;100.00;52357.25;5138606;27;20207;-85
2022/10/31 07:11:49;;;;;;;15.03;3.00;;;;;;;-145.69;100.00;52337.44;5138619;27;20199;-85
2022/10/31 07:14:15;;;;;;;14.23;3.27;;;;;;;-145.69;100.00;52329.53;5138365;27;20648;-85
2022/10/31 07:16:42;;;;;;;8.87;2.53;;;;;;;-145.69;100.00;52325.56;5138669;27;20220;-85
2022/10/31 07:19:08;;;;;;;8.40;2.80;;;;;;;-145.69;100.00;52345.38;5138216;27;20201;-85
2022/10/31 07:21:35;;;;;;;6.63;2.93;;;;;;;-145.69;100.00;52325.56;5137964;27;20196;-85
2022/10/31 07:24:01;;;;;;;14.50;2.53;;;;;;;-145.69;100.00;52349.31;5138124;27;20197;-84
2022/10/31 07:26:29;;;;;;;6.95;2.33;;;;;;;-145.69;100.00;52323.59;5138253;27;20200;-85
2022/10/31 07:28:56;;;;;;;5.95;2.10;;;;;;;-145.69;100.00;52349.31;5150787;27;20200;-85
2022/10/31 07:31:23;;;;;;;12.70;2.50;;;;;;;-145.69;100.00;52351.31;5158568;27;20198;-84
2022/10/31 07:33:50;;;;;;;8.25;2.35;;;;;;;-145.69;100.00;52341.41;5158405;27;20232;-85
2022/10/31 07:36:17;;;;;;;10.13;2.58;;;;;;;-145.69;100.00;52323.59;5158612;27;20234;-86
2022/10/31 07:38:43;;;;;;;11.20;2.95;;;;;;;-145.69;100.00;52365.16;5158681;27;20223;-85
2022/10/31 07:41:10;;;;;;;8.88;2.50;;;;;;;-145.69;100.00;52329.53;5158504;27;20200;-84
2022/10/31 07:43:38;;;;;;;10.05;2.72;;;;;;;-145.69;100.00;52321.59;5158119;27;20670;-85
2022/10/31 07:46:05;;;;;;;4.43;2.30;;;;;;;-145.69;100.00;52309.72;5158512;27;20192;-86
2022/10/31 07:48:31;;;;;;;9.88;2.80;;;;;;;-145.69;100.00;52337.44;5158358;27;20203;-85
2022/10/31 07:50:58;;;;;;;7.57;2.17;;;;;;;-145.69;100.00;52309.72;5139435;27;20200;-85
2022/10/31 07:53:24;;;;;;;14.48;2.65;;;;;;;-145.69;100.00;52305.75;5137203;27;20274;-85
2022/10/31 07:55:51;;;;;;;7.40;2.10;;;;;;;-145.69;100.00;52321.59;5140771;27;20639;-84
2022/10/31 07:58:18;;;;;;;6.45;2.47;;;;;;;-145.69;100.00;52307.75;5137190;27;20200;-85
2022/10/31 08:00:47;;;;;;;7.68;2.10;;;;;;;-145.69;100.00;52278.03;5137132;27;20197;-84
2022/10/31 08:03:15;;;;;;;6.03;2.38;;;;;;;-145.69;100.00;52274.06;5136886;27;20205;-85
2022/10/31 08:05:44;;;;;;;6.90;1.98;;;;;;;-145.69;100.00;52317.66;5130644;27;20188;-85
2022/10/31 08:08:11;;;;;;;9.55;2.70;;;;;;;-145.69;100.00;52315.66;5138537;27;20540;-85
2022/10/31 08:10:37;;;;;;;8.10;3.20;;;;;;;-145.69;100.00;52274.06;5136685;27;20201;-84
2022/10/31 08:13:06;;;;;;;8.63;2.63;;;;;;;-145.69;100.00;52272.09;5137109;27;20201;-85
2022/10/31 08:15:37;;;;;;;6.75;2.20;;;;;;;-145.69;100.00;52289.91;5136792;27;20207;-84
2022/10/31 08:18:05;;;;;;;7.45;2.13;;;;;;;-145.69;100.00;52297.84;5136660;27;20228;-85
2022/10/31 08:20:31;;;;;;;7.97;2.45;;;;;;;-145.69;100.00;52309.72;5137461;27;20196;-84
2022/10/31 08:22:59;;;;;;;13.18;2.63;;;;;;;-145.69;100.00;52264.16;5137579;27;20620;-85
2022/10/31 08:25:27;;;;;;;6.72;2.30;;;;;;;-145.69;100.00;52266.16;5137199;27;20208;-84
2022/10/31 08:27:55;;;;;;;11.18;2.25;;;;;;;-145.69;100.00;52252.28;5140475;27;20192;-84
2022/10/31 08:30:23;;;;;;;9.15;2.50;;;;;;;-145.69;100.00;52270.13;5136953;27;20200;-84
2022/10/31 08:32:58;;;;;;;6.22;2.33;;;;;;;-145.69;100.00;52254.28;5136917;27;20203;-77
2022/10/31 08:35:26;;;;;;;4.47;2.13;;;;;;;-145.69;100.00;52283.97;5139505;27;20193;-84
2022/10/31 08:37:55;;;;;;;8.07;2.58;;;;;;;-145.69;100.00;52226.53;5136011;27;20228;-84
2022/10/31 08:40:21;;;;;;;12.68;2.53;;;;;;;-145.69;100.00;52230.50;5136163;27;20207;-85
2022/10/31 08:42:48;;;;;;;7.45;2.78;;;;;;;-145.69;100.00;52226.53;5136106;27;20200;-83
2022/10/31 08:45:14;;;;;;;6.85;2.05;;;;;;;-145.69;100.00;52226.53;5135900;27;20556;-83
2022/10/31 08:47:41;;;;;;;9.55;2.15;;;;;;;-145.69;100.00;52242.38;5135862;27;20201;-84
2022/10/31 08:50:08;;;;;;;10.95;2.05;;;;;;;-145.69;100.00;52262.19;5135667;27;20201;-83
2022/10/31 08:52:36;;;;;;;10.90;2.67;;;;;;;-145.69;100.00;52258.22;5135590;27;20196;-84
2022/10/31 08:55:02;;;;;;;11.80;2.35;;;;;;;-145.69;100.00;52266.16;5135900;27;20201;-83
2022/10/31 08:57:29;;;;;;;7.25;2.33;;;;;;;-145.69;98.91;52258.22;5135533;27;20225;-84
2022/10/31 08:59:55;;;;;;;9.52;2.53;;;;;;;-145.69;100.00;52260.22;5135671;27;20203;-84
2022/10/31 09:02:22;;;;;;;8.75;2.10;;;;;;;-145.69;97.70;52258.22;5132685;27;20223;-82
2022/10/31 09:04:48;;;;;;;8.30;1.98;;;;;;;-145.69;99.00;52222.59;5135823;27;20201;-84
2022/10/31 09:07:15;;;;;;;5.97;1.75;;;;;;;-145.69;100.00;52242.38;5135423;27;20208;-84
2022/10/31 09:09:43;;;;;;;9.90;2.15;;;;;;;-145.69;99.34;52248.34;5133404;27;20215;-84
2022/10/31 09:12:10;;;;;;;8.57;2.63;;;;;;;-145.69;99.00;52220.59;5135341;27;20197;-83
2022/10/31 09:14:36;;;;;;;8.63;2.15;;;;;;;-145.69;97.42;52244.38;5135111;27;20197;-84
2022/10/31 09:17:02;;;;;;;12.35;1.95;;;;;;;-145.69;98.75;52224.56;5136171;27;20224;-82
2022/10/31 09:19:29;;;;;;;7.07;2.03;;;;;;;-145.69;94.97;52194.88;5135703;27;20212;-85
2022/10/31 09:21:55;;;;;;;7.43;2.30;;;;;;;-145.69;95.62;52262.19;5135797;27;20232;-84
2022/10/31 09:24:22;;;;;;;4.97;1.92;;;;;;;-145.69;95.21;52212.69;5135229;27;20212;-83
2022/10/31 09:26:50;;;;;;;6.45;2.10;;;;;;;-145.69;95.54;52226.53;5134726;27;20579;-83
2022/10/31 09:29:17;;;;;;;5.13;2.03;;;;;;;-145.69;93.31;52214.66;5137299;27;20199;-83
2022/10/31 09:31:43;;;;;;;11.45;2.17;;;;;;;-145.69;90.50;52210.72;5137065;27;20201;-82
2022/10/31 09:34:10;;;;;;;12.98;2.30;;;;;;;-145.69;87.71;52214.66;5137671;27;20224;-81
2022/10/31 09:36:37;;;;;;;10.10;2.50;;;;;;;-145.69;93.72;52218.63;5136299;27;20227;-79
2022/10/31 09:39:03;;;;;;;10.32;2.65;;;;;;;-145.69;88.29;52214.66;5135042;27;20201;-84
2022/10/31 09:41:45;;;;;;;10.32;2.78;;;;;;;-145.69;88.29;52242.38;5135066;27;20204;-85
2022/10/31 09:44:22;;;;;;;5.63;2.05;;;;;;;-145.69;89.05;52222.59;5135226;27;20566;-82
2022/10/31 09:46:57;;;;;;;6.63;1.90;;;;;;;-145.69;83.78;52222.59;5134579;27;20196;-84
2022/10/31 09:49:35;;;;;;;8.50;2.10;;;;;;;-145.69;81.62;52186.94;5134600;27;20650;-84
2022/10/31 09:52:09;;;;;;;7.57;2.47;;;;;;;-145.69;83.16;52194.88;5134523;27;20206;-84
2022/10/31 09:54:42;;;;;;;14.60;2.38;;;;;;;-145.69;79.90;52194.88;5134572;27;20570;-83
2022/10/31 09:57:15;;;;;;;8.75;2.10;;;;;;;-145.69;80.59;52149.31;5131392;27;20221;-84
2022/10/31 09:59:46;;;;;;;11.50;2.20;;;;;;;-145.69;80.34;52194.88;5134394;27;20200;-84
2022/10/31 10:02:18;;;;;;;13.57;2.35;;;;;;;-145.69;81.32;52169.13;5135573;27;20567;-83
2022/10/31 10:04:50;;;;;;;9.77;2.65;;;;;;;-145.69;84.48;52186.94;5141329;27;20654;-84
2022/10/31 10:07:27;;;;;;;8.55;2.42;;;;;;;-145.69;80.49;52161.19;5156979;27;20206;-84
2022/10/31 10:09:54;;;;;;;10.80;2.50;;;;;;;-145.69;80.08;52177.03;5158519;27;20240;-86
2022/10/31 10:12:38;;;;;;;6.15;2.33;;;;;;;-145.69;80.92;52171.09;5158047;27;20200;-85
2022/10/31 10:15:45;;;;;;;6.18;1.90;;;;;;;-145.69;82.75;52208.72;5157509;27;20767;-84
2022/10/31 10:18:23;;;;;;;14.48;2.53;;;;;;;-145.69;81.18;52190.91;5072607;28;20222;-85
2022/10/31 10:21:04;;;;;;;10.50;2.35;;;;;;;-145.69;82.75;52173.09;5148849;27;20199;-86
2022/10/31 10:23:43;;;;;;;8.75;2.47;;;;;;;-145.69;82.40;52202.78;5157173;27;20206;-86
2022/10/31 10:26:18;;;;;;;12.27;2.35;;;;;;;-145.69;85.21;52202.78;5156203;27;20199;-86
2022/10/31 10:28:48;;;;;;;6.40;2.17;;;;;;;-145.69;86.88;52194.88;5156456;27;20648;-85
2022/10/31 10:31:20;;;;;;;10.15;2.25;;;;;;;-145.69;82.08;52179.03;5157960;27;20282;-85
2022/10/31 10:33:58;;;;;;;9.15;2.28;;;;;;;-145.69;84.60;52157.25;5156154;27;20727;-85
2022/10/31 10:36:31;;;;;;;7.85;2.28;;;;;;;-145.69;83.37;52198.81;5155871;27;20188;-85
2022/10/31 10:39:03;;;;;;;5.82;2.10;;;;;;;-145.69;84.07;52179.03;5155812;27;20200;-85
2022/10/31 10:41:33;;;;;;;12.73;2.60;;;;;;;-145.69;80.17;52198.81;5155673;27;20204;-85
2022/10/31 10:43:59;;;;;;;7.25;2.35;;;;;;;-145.69;77.54;52181.00;5155705;27;20654;-85
2022/10/31 10:49:33;;;;;;;12.63;2.40;;;;;;;-145.69;79.71;52167.13;5138655;27;20219;-87
2022/10/31 10:52:04;;;;;;;8.13;2.38;;;;;;;-145.69;82.07;52143.38;5134193;27;20234;-86
2022/10/31 10:54:43;;;;;;;9.43;2.90;;;;;;;-145.69;79.96;52159.22;5134693;27;20197;-85
2022/10/31 10:57:23;;;;;;;9.57;2.72;;;;;;;-145.69;78.77;52159.22;5134620;27;20231;-87
2022/10/31 10:59:53;;;;;;;8.65;2.45;;;;;;;-145.69;82.21;52129.50;5135250;27;20214;-86
2022/10/31 11:02:24;;;;;;;10.27;2.78;;;;;;;-145.69;78.90;52181.00;5134402;27;20196;-85
2022/10/31 11:04:53;;;;;;;16.30;2.83;;;;;;;-145.69;77.40;52159.22;5143028;27;20188;-87
2022/10/31 11:07:20;;;;;;;13.35;2.58;;;;;;;-145.69;79.95;52117.63;5148579;27;20437;-87
2022/10/31 11:09:47;;;;;;;8.20;2.42;;;;;;;-145.69;75.40;52133.47;5134584;27;20289;-86
2022/10/31 11:12:21;;;;;;;6.63;1.80;;;;;;;-145.69;71.58;52115.66;5133251;28;20200;-87
2022/10/31 11:14:55;;;;;;;8.02;2.13;;;;;;;-145.69;73.14;52135.47;5134848;27;20253;-85
2022/10/31 11:17:30;;;;;;;9.18;2.30;;;;;;;-145.69;72.29;52139.41;5134759;27;20583;-86
2022/10/31 11:20:06;;;;;;;6.72;2.08;;;;;;;-145.69;71.66;52147.34;5133992;27;20203;-85